Time;durP1;ratioP1;P1;durP2;ratioP2;P2;SDS_P1;SDS_P2;PMS_P1;PMS_P2;Temp;Humidity;BMP_temperature;BMP_pressure;BME280_temperature;BME280_humidity;BME280_pressure;Samples;Min_cycle;Max_cycle;Signal;HPM_P1;HPM_P2
2022/03/05 00:00:43;;;;;;;4.85;1.90;;;-0.40;93.80;-0.90;98259.00;;;;4910962;28;84873;-69
2022/03/05 00:03:11;;;;;;;3.10;2.00;;;-0.40;93.20;-0.90;98267.00;;;;4943398;28;83099;-68
2022/03/05 00:05:37;;;;;;;2.83;1.60;;;-0.40;93.30;-0.90;98243.00;;;;4944850;28;82027;-65
2022/03/05 00:08:04;;;;;;;4.35;2.20;;;-0.40;93.30;-0.80;98250.00;;;;4944550;28;81994;-65
2022/03/05 00:10:31;;;;;;;3.50;2.30;;;-0.40;93.40;-0.90;98257.00;;;;4934448;28;82285;-65
2022/03/05 00:12:57;;;;;;;5.13;2.55;;;-0.40;93.80;-0.90;98246.00;;;;4959085;28;82695;-65
2022/03/05 00:15:24;;;;;;;4.65;3.30;;;-0.40;94.20;-0.90;98235.00;;;;4943582;28;83372;-67
2022/03/05 00:17:54;;;;;;;6.25;3.33;;;-0.40;94.70;-0.90;98243.00;;;;4945251;28;84520;-65
2022/03/05 00:20:26;;;;;;;6.07;3.60;;;-0.50;95.10;-0.90;98238.00;;;;4948336;28;83054;-67
2022/03/05 00:22:52;;;;;;;6.05;3.60;;;-0.50;95.50;-1.00;98239.00;;;;4946337;28;83200;-67
2022/03/05 00:25:28;;;;;;;7.50;4.18;;;-0.50;95.80;-1.00;98235.00;;;;4956405;28;83599;-67
2022/03/05 00:27:55;;;;;;;7.47;3.97;;;-0.50;96.20;-1.00;98229.00;;;;4945041;28;82178;-67
2022/03/05 00:30:25;;;;;;;6.18;4.10;;;-0.50;96.50;-1.00;98251.00;;;;4943126;28;82249;-67
2022/03/05 00:32:51;;;;;;;7.28;4.18;;;-0.50;96.80;-1.00;98232.00;;;;4944409;28;82342;-67
2022/03/05 00:35:18;;;;;;;6.15;4.55;;;-0.50;97.00;-1.00;98220.00;;;;4944307;28;83424;-67
2022/03/05 00:37:47;;;;;;;8.27;5.30;;;-0.50;97.40;-1.00;98223.00;;;;4944169;28;82709;-67
2022/03/05 00:40:17;;;;;;;8.00;4.53;;;-0.50;97.60;-1.00;98224.00;;;;4943099;28;83428;-67
2022/03/05 00:42:46;;;;;;;6.65;4.85;;;-0.50;97.60;-1.00;98251.00;;;;4943410;28;84230;-68
2022/03/05 00:45:12;;;;;;;8.15;4.90;;;-0.50;97.80;-1.00;98241.00;;;;4943067;28;85016;-67
2022/03/05 00:47:40;;;;;;;8.70;5.18;;;-0.50;97.90;-1.00;98242.00;;;;4939144;28;82620;-67
2022/03/05 00:50:12;;;;;;;8.43;4.80;;;-0.50;98.00;-1.00;98240.00;;;;4942796;28;84676;-67
2022/03/05 00:52:42;;;;;;;9.20;5.20;;;-0.50;98.10;-1.00;98248.00;;;;4944564;28;82474;-68
2022/03/05 00:55:08;;;;;;;8.52;5.20;;;-0.60;98.30;-1.00;98248.00;;;;4942679;28;83594;-67
2022/03/05 00:57:39;;;;;;;8.63;5.60;;;-0.50;98.10;-1.00;98252.00;;;;4943659;28;82379;-66
2022/03/05 01:00:06;;;;;;;9.40;4.93;;;-0.50;98.30;-1.00;98246.00;;;;4944108;28;83463;-67
2022/03/05 01:02:33;;;;;;;7.60;4.90;;;-0.50;98.30;-1.00;98260.00;;;;4943916;28;82726;-68
2022/03/05 01:04:59;;;;;;;6.88;4.70;;;-0.60;98.60;-1.00;98259.00;;;;4944383;28;82291;-67
2022/03/05 01:07:25;;;;;;;7.40;4.20;;;-0.50;98.90;-1.00;98259.00;;;;4938608;28;82908;-66
2022/03/05 01:09:52;;;;;;;6.95;4.40;;;-0.60;98.30;-1.00;98264.00;;;;4943273;28;82303;-66
2022/03/05 01:12:18;;;;;;;9.30;4.63;;;-0.60;98.30;-1.00;98257.00;;;;4942608;28;82517;-67
2022/03/05 01:14:44;;;;;;;8.40;4.53;;;-0.60;99.00;-1.10;98263.00;;;;4943962;28;82774;-67
2022/03/05 01:17:11;;;;;;;6.78;4.18;;;-0.60;99.10;-1.10;98257.00;;;;4942119;28;82241;-67
2022/03/05 01:19:37;;;;;;;7.78;4.55;;;-0.60;99.20;-1.10;98239.00;;;;4943570;28;82743;-67
2022/03/05 01:22:05;;;;;;;5.88;3.90;;;-0.60;99.20;-1.10;98260.00;;;;4946731;28;82609;-67
2022/03/05 01:24:31;;;;;;;6.30;4.15;;;-0.60;99.70;-1.00;98245.00;;;;4953367;28;82324;-67
2022/03/05 01:26:57;;;;;;;5.95;4.25;;;-0.60;99.40;-1.10;98257.00;;;;4945971;28;81934;-67
2022/03/05 01:29:23;;;;;;;7.35;4.00;;;-0.60;99.50;-1.10;98254.00;;;;4931292;28;82319;-68
2022/03/05 01:31:53;;;;;;;4.97;3.22;;;-0.60;99.10;-1.10;98249.00;;;;4946742;28;83677;-67
2022/03/05 01:34:20;;;;;;;5.82;3.75;;;-0.60;99.10;-1.10;98272.00;;;;4946371;28;82155;-67
2022/03/05 01:36:46;;;;;;;5.32;3.35;;;-0.60;99.10;-1.10;98250.00;;;;4947506;28;81861;-66
2022/03/05 01:39:14;;;;;;;4.38;3.17;;;-0.60;98.50;-1.10;98253.00;;;;4946869;28;82592;-66
2022/03/05 01:41:48;;;;;;;4.53;2.75;;;-0.60;98.40;-1.10;98262.00;;;;4947345;28;82252;-67
2022/03/05 01:44:20;;;;;;;5.55;2.90;;;-0.60;98.30;-1.10;98241.00;;;;4947266;28;82279;-66
2022/03/05 01:46:51;;;;;;;3.72;2.50;;;-0.60;97.60;-1.00;98259.00;;;;4946164;28;82062;-64
2022/03/05 01:49:25;;;;;;;4.20;2.80;;;-0.60;97.60;-1.10;98261.00;;;;4947113;28;82368;-64
2022/03/05 01:51:54;;;;;;;3.53;2.65;;;-0.60;97.90;-1.00;98264.00;;;;4926165;28;82587;-64
2022/03/05 01:54:24;;;;;;;5.95;2.75;;;-0.60;97.70;-1.10;98265.00;;;;4944188;28;82274;-64
2022/03/05 01:56:59;;;;;;;5.30;2.58;;;-0.60;98.00;-1.10;98264.00;;;;4945494;28;83124;-64
2022/03/05 01:59:34;;;;;;;3.58;2.33;;;-0.60;98.10;-1.10;98258.00;;;;4946129;28;83682;-65
2022/03/05 02:02:00;;;;;;;3.35;2.20;;;-0.60;97.60;-1.10;98264.00;;;;4945879;28;82525;-64
2022/03/05 02:04:31;;;;;;;5.03;2.30;;;-0.60;97.70;-1.10;98268.00;;;;4947032;28;82126;-64
2022/03/05 02:06:58;;;;;;;3.70;2.30;;;-0.60;97.70;-1.10;98262.00;;;;4946245;28;82128;-65
2022/03/05 02:09:28;;;;;;;3.20;2.10;;;-0.60;97.60;-1.10;98255.00;;;;4946494;28;82368;-64
2022/03/05 02:11:58;;;;;;;2.60;2.05;;;-0.60;97.20;-1.10;98261.00;;;;4953005;28;87660;-64
2022/03/05 02:14:25;;;;;;;1.65;1.20;;;-0.60;97.40;-1.10;98281.00;;;;4933079;28;88478;-67
2022/03/05 02:16:57;;;;;;;1.30;1.20;;;-0.60;95.30;-1.00;98262.00;;;;4944378;28;86893;-66
2022/03/05 02:19:24;;;;;;;2.58;1.52;;;-0.60;95.00;-1.10;98260.00;;;;4947446;28;87438;-67
2022/03/05 02:21:53;;;;;;;2.15;1.30;;;-0.60;95.20;-1.10;98261.00;;;;4942849;28;88696;-67
2022/03/05 02:24:31;;;;;;;1.50;1.20;;;-0.60;95.00;-1.00;98273.00;;;;4948774;28;88280;-66
2022/03/05 02:27:05;;;;;;;1.75;1.17;;;-0.60;94.70;-1.00;98281.00;;;;4927716;28;87224;-68
2022/03/05 02:29:41;;;;;;;1.88;1.23;;;-0.50;94.50;-1.00;98273.00;;;;4942565;28;87255;-66
2022/03/05 02:32:11;;;;;;;1.92;1.13;;;-0.60;94.60;-1.00;98274.00;;;;4942140;28;88778;-66
2022/03/05 02:34:37;;;;;;;2.05;1.25;;;-0.50;94.70;-1.00;98268.00;;;;4942570;28;88205;-63
2022/03/05 02:37:04;;;;;;;1.80;1.30;;;-0.60;95.10;-1.00;98264.00;;;;4943301;28;87487;-63
2022/03/05 02:39:30;;;;;;;2.65;1.52;;;-0.60;95.00;-1.00;98262.00;;;;4943422;28;86240;-63
2022/03/05 02:41:56;;;;;;;1.58;1.45;;;-0.50;95.40;-1.00;98272.00;;;;4943126;28;87663;-62
2022/03/05 02:44:24;;;;;;;1.60;1.42;;;-0.50;95.50;-1.00;98268.00;;;;4942215;28;88273;-63
2022/03/05 02:46:55;;;;;;;1.95;1.60;;;-0.50;95.60;-1.00;98259.00;;;;4942236;28;87960;-64
2022/03/05 02:49:21;;;;;;;3.15;1.88;;;-0.50;95.90;-1.00;98259.00;;;;4943331;28;87205;-64
2022/03/05 02:51:47;;;;;;;2.60;1.63;;;-0.50;96.30;-1.00;98264.00;;;;4943474;28;87595;-64
2022/03/05 02:54:13;;;;;;;2.10;1.50;;;-0.60;96.30;-1.00;98271.00;;;;4943272;28;87370;-63
2022/03/05 02:56:40;;;;;;;2.92;2.10;;;-0.60;96.80;-1.00;98249.00;;;;4943822;28;87211;-63
2022/03/05 02:59:07;;;;;;;2.95;2.00;;;-0.50;97.20;-1.00;98260.00;;;;4943082;28;86908;-63
2022/03/05 03:01:33;;;;;;;2.20;2.00;;;-0.50;97.70;-1.00;98264.00;;;;4943215;28;87815;-63
2022/03/05 03:03:59;;;;;;;2.90;2.17;;;-0.50;98.10;-1.00;98262.00;;;;4942443;28;87304;-63
2022/03/05 03:06:26;;;;;;;2.45;2.00;;;-0.60;98.20;-1.00;98264.00;;;;4943623;28;87329;-64
2022/03/05 03:08:52;;;;;;;2.50;1.90;;;-0.60;98.30;-1.10;98268.00;;;;4943059;28;87211;-65
2022/03/05 03:11:18;;;;;;;3.35;1.63;;;-0.60;98.00;-1.00;98283.00;;;;4943667;28;88870;-71
2022/03/05 03:13:47;;;;;;;3.17;2.17;;;-0.60;98.20;-1.10;98278.00;;;;4941652;28;88366;-64
2022/03/05 03:16:15;;;;;;;2.65;1.67;;;-0.60;98.20;-1.10;98260.00;;;;4942823;28;87310;-64
2022/03/05 03:18:42;;;;;;;3.38;1.90;;;-0.60;98.20;-1.10;98278.00;;;;4938660;28;87082;-64
2022/03/05 03:21:09;;;;;;;2.78;1.75;;;-0.60;97.90;-1.10;98273.00;;;;4941790;28;87573;-65
2022/03/05 03:23:35;;;;;;;2.90;2.30;;;-0.60;97.80;-1.10;98294.00;;;;4942859;28;88447;-64
2022/03/05 03:26:02;;;;;;;2.45;1.70;;;-0.60;97.50;-1.10;98271.00;;;;4949652;28;86899;-68
2022/03/05 03:28:28;;;;;;;4.93;2.10;;;-0.60;97.40;-1.10;98273.00;;;;4951086;28;86391;-69
2022/03/05 03:31:01;;;;;;;2.70;1.27;;;-0.60;97.00;-1.10;98282.00;;;;4951752;28;88906;-63
2022/03/05 03:33:27;;;;;;;2.17;1.23;;;-0.70;96.30;-1.20;98281.00;;;;4942803;28;87437;-68
2022/03/05 03:35:54;;;;;;;1.90;1.17;;;-0.70;96.00;-1.20;98265.00;;;;4942877;28;88009;-68
2022/03/05 03:38:20;;;;;;;1.50;1.25;;;-0.70;96.20;-1.20;98291.00;;;;4941701;28;87085;-67
2022/03/05 03:40:50;;;;;;;2.28;1.35;;;-0.70;96.00;-1.20;98278.00;;;;4942489;28;87378;-67
2022/03/05 03:43:16;;;;;;;1.48;1.30;;;-0.70;95.80;-1.20;98291.00;;;;4941519;28;87611;-64
2022/03/05 03:45:43;;;;;;;4.03;1.40;;;-0.70;95.30;-1.20;98295.00;;;;4943188;28;87019;-64
2022/03/05 03:48:09;;;;;;;2.22;1.40;;;-0.70;95.50;-1.20;98288.00;;;;4942363;28;87347;-65
2022/03/05 03:50:35;;;;;;;2.22;1.40;;;-0.70;95.60;-1.20;98292.00;;;;4942082;28;87603;-64
2022/03/05 03:53:02;;;;;;;2.05;1.40;;;-0.70;95.60;-1.20;98301.00;;;;4943034;28;87386;-64
2022/03/05 03:55:28;;;;;;;2.25;1.60;;;-0.70;95.70;-1.20;98293.00;;;;4942826;28;87368;-65
2022/03/05 03:57:55;;;;;;;4.43;1.80;;;-0.70;95.90;-1.20;98291.00;;;;4942125;28;87827;-64
2022/03/05 04:00:23;;;;;;;4.13;2.05;;;-0.70;96.60;-1.20;98300.00;;;;4940085;28;88495;-64
2022/03/05 04:02:53;;;;;;;3.50;1.83;;;-0.70;97.40;-1.20;98323.00;;;;4942078;28;88517;-65
2022/03/05 04:05:22;;;;;;;2.90;2.15;;;-0.80;97.70;-1.30;98322.00;;;;4942695;28;87279;-64
2022/03/05 04:10:33;;;;;;;4.18;2.28;;;-0.90;98.10;-1.40;98336.00;;;;4942202;28;87750;-64
2022/03/05 04:13:02;;;;;;;2.63;2.00;;;-0.90;98.60;-1.50;98315.00;;;;4959135;28;87389;-64
2022/03/05 04:15:29;;;;;;;4.63;1.90;;;-1.00;98.50;-1.60;98323.00;;;;4941246;28;87246;-64
2022/03/05 04:17:58;;;;;;;3.95;2.30;;;-1.10;98.40;-1.60;98320.00;;;;4942807;28;86591;-64
2022/03/05 04:20:24;;;;;;;3.33;2.22;;;-1.10;98.20;-1.60;98331.00;;;;4941332;28;87534;-64
2022/03/05 04:22:53;;;;;;;2.67;1.90;;;-1.10;98.20;-1.60;98324.00;;;;4941204;28;87396;-65
2022/03/05 04:25:19;;;;;;;2.58;1.65;;;-1.20;97.70;-1.70;98311.00;;;;4948514;28;87929;-65
2022/03/05 04:27:49;;;;;;;3.97;2.00;;;-1.10;97.50;-1.70;98366.00;;;;4945345;28;86971;-64
2022/03/05 04:30:15;;;;;;;1.95;1.70;;;-1.20;97.70;-1.70;98335.00;;;;4941365;28;88916;-64
2022/03/05 04:32:43;;;;;;;3.72;2.10;;;-1.20;97.50;-1.70;98337.00;;;;4941817;28;87871;-63
2022/03/05 04:35:09;;;;;;;4.25;1.95;;;-1.20;97.50;-1.70;98345.00;;;;4941631;28;86831;-65
2022/03/05 04:37:37;;;;;;;1.75;1.50;;;-1.20;97.60;-1.70;98346.00;;;;4941883;28;87005;-65
2022/03/05 04:40:04;;;;;;;3.00;1.90;;;-1.20;97.10;-1.70;98363.00;;;;4941044;28;88555;-65
2022/03/05 04:42:31;;;;;;;4.05;2.33;;;-1.20;97.20;-1.70;98341.00;;;;4942097;28;87286;-65
2022/03/05 04:44:58;;;;;;;2.78;1.73;;;-1.20;97.50;-1.70;98347.00;;;;4940904;28;87102;-63
2022/03/05 04:47:25;;;;;;;3.60;1.98;;;-1.30;97.00;-1.80;98357.00;;;;4941249;28;86977;-64
2022/03/05 04:49:52;;;;;;;2.72;1.50;;;-1.30;97.10;-1.90;98336.00;;;;4940509;28;88897;-62
2022/03/05 04:52:18;;;;;;;3.22;1.38;;;-1.30;96.70;-1.90;98369.00;;;;4939800;28;89392;-63
2022/03/05 04:54:44;;;;;;;2.72;1.55;;;-1.40;96.60;-1.90;98368.00;;;;4940734;28;87070;-63
2022/03/05 04:57:13;;;;;;;2.00;1.48;;;-1.40;96.40;-1.90;98369.00;;;;4940915;28;87035;-63
2022/03/05 04:59:39;;;;;;;1.38;1.20;;;-1.40;96.20;-1.90;98360.00;;;;4940612;28;88053;-64
2022/03/05 05:02:05;;;;;;;3.30;1.40;;;-1.40;95.90;-1.90;98335.00;;;;4941341;28;87303;-64
2022/03/05 05:04:31;;;;;;;1.88;1.40;;;-1.30;96.00;-1.90;98386.00;;;;4940246;28;86912;-65
2022/03/05 05:06:57;;;;;;;3.65;1.48;;;-1.30;95.80;-1.90;98347.00;;;;4940559;28;87081;-63
2022/03/05 05:09:24;;;;;;;3.92;1.38;;;-1.30;96.10;-1.80;98346.00;;;;4940724;28;87612;-64
2022/03/05 05:11:51;;;;;;;2.65;1.60;;;-1.30;96.00;-1.80;98365.00;;;;4941068;28;87390;-64
2022/03/05 05:14:20;;;;;;;2.65;1.67;;;-1.30;96.10;-1.80;98365.00;;;;4940436;28;88074;-63
2022/03/05 05:16:50;;;;;;;1.73;1.40;;;-1.30;96.40;-1.80;98373.00;;;;4941053;28;87177;-64
2022/03/05 05:19:29;;;;;;;1.58;1.48;;;-1.30;95.70;-1.80;98364.00;;;;4939995;28;87606;-64
2022/03/05 05:22:01;;;;;;;1.75;1.42;;;-1.40;95.80;-1.90;98366.00;;;;4940593;28;87321;-63
2022/03/05 05:24:32;;;;;;;;;;;-1.30;95.70;-1.90;98397.00;;;;4948926;28;87020;-64
2022/03/05 05:27:03;;;;;;;4.38;2.10;;;-1.40;96.60;-1.90;98362.00;;;;4941848;28;87256;-63
2022/03/05 05:29:30;;;;;;;2.33;1.80;;;-1.40;96.80;-2.00;98361.00;;;;4956728;28;87508;-64
2022/03/05 05:31:57;;;;;;;2.60;1.73;;;-1.40;96.60;-2.00;98370.00;;;;4943083;28;87370;-65
2022/03/05 05:34:26;;;;;;;2.63;1.77;;;-1.50;96.80;-2.00;98369.00;;;;4940411;28;87452;-63
2022/03/05 05:36:55;;;;;;;2.80;1.73;;;-1.40;96.80;-2.00;98370.00;;;;4941406;28;86985;-63
2022/03/05 05:39:21;;;;;;;2.83;1.88;;;-1.50;96.60;-1.90;98366.00;;;;4939676;28;88358;-63
2022/03/05 05:41:48;;;;;;;4.95;2.25;;;-1.40;96.80;-1.90;98375.00;;;;4940209;28;89199;-63
2022/03/05 05:44:18;;;;;;;4.93;1.92;;;-1.40;96.60;-1.90;98374.00;;;;4938905;28;88374;-65
2022/03/05 05:46:44;;;;;;;1.95;1.45;;;-1.40;96.40;-2.00;98366.00;;;;4927088;28;87565;-65
2022/03/05 05:49:10;;;;;;;2.42;1.77;;;-1.50;95.90;-2.00;98380.00;;;;4940535;28;87835;-65
2022/03/05 05:51:37;;;;;;;3.22;1.80;;;-1.50;96.40;-2.00;98379.00;;;;4940254;28;87406;-65
2022/03/05 05:54:04;;;;;;;2.78;1.83;;;-1.40;96.30;-2.00;98380.00;;;;4940636;28;87486;-64
2022/03/05 05:56:30;;;;;;;2.65;1.75;;;-1.50;96.50;-2.00;98402.00;;;;4939591;28;86345;-64
2022/03/05 05:58:57;;;;;;;4.45;2.30;;;-1.50;96.80;-2.00;98394.00;;;;4940437;28;87598;-64
2022/03/05 06:01:24;;;;;;;4.15;2.78;;;-1.50;97.00;-2.00;98391.00;;;;4936205;28;88911;-64
2022/03/05 06:03:50;;;;;;;5.15;2.40;;;-1.50;97.30;-2.00;98386.00;;;;4939211;28;88020;-65
2022/03/05 06:06:17;;;;;;;4.53;2.58;;;-1.60;97.30;-2.10;98416.00;;;;4940598;28;87561;-64
2022/03/05 06:08:43;;;;;;;6.07;2.67;;;-1.60;97.50;-2.10;98397.00;;;;4943403;28;88871;-64
2022/03/05 06:11:10;;;;;;;4.63;2.75;;;-1.60;97.50;-2.10;98404.00;;;;4943360;28;87357;-63
2022/03/05 06:13:39;;;;;;;3.60;2.63;;;-1.60;97.60;-2.10;98411.00;;;;4939849;28;87436;-63
2022/03/05 06:16:06;;;;;;;3.63;2.78;;;-1.70;97.60;-2.10;98395.00;;;;4943479;28;87720;-64
2022/03/05 06:18:33;;;;;;;3.97;2.63;;;-1.60;97.70;-2.10;98409.00;;;;4943256;28;87577;-64
2022/03/05 06:21:00;;;;;;;3.72;2.40;;;-1.60;97.40;-2.10;98390.00;;;;4944148;28;87311;-64
2022/03/05 06:23:35;;;;;;;3.83;2.90;;;-1.60;97.20;-2.00;98432.00;;;;4943096;28;87313;-64
2022/03/05 06:26:01;;;;;;;5.50;2.95;;;-1.60;97.10;-2.10;98407.00;;;;4955812;28;87116;-64
2022/03/05 06:28:28;;;;;;;6.32;3.22;;;-1.60;97.50;-2.00;98384.00;;;;4942415;28;89079;-64
2022/03/05 06:30:54;;;;;;;5.28;2.88;;;-1.60;97.70;-2.00;98405.00;;;;4940630;28;88170;-65
2022/03/05 06:33:20;;;;;;;4.90;2.75;;;-1.60;98.00;-2.10;98403.00;;;;4941671;28;87045;-63
2022/03/05 06:35:47;;;;;;;8.23;2.97;;;-1.60;97.60;-2.10;98395.00;;;;4943513;28;87439;-64
2022/03/05 06:38:14;;;;;;;5.90;3.55;;;-1.60;98.20;-2.10;98447.00;;;;4942564;28;88138;-65
2022/03/05 06:40:40;;;;;;;5.45;3.10;;;-1.60;98.30;-2.20;98411.00;;;;4935040;28;88442;-63
2022/03/05 06:43:06;;;;;;;6.45;3.40;;;-1.70;97.80;-2.20;98426.00;;;;4925910;28;87394;-63
2022/03/05 06:45:33;;;;;;;5.03;3.50;;;-1.70;97.90;-2.00;98398.00;;;;4942004;28;86453;-67
2022/03/05 06:47:59;;;;;;;3.45;2.50;;;-1.60;98.00;-2.00;98421.00;;;;4941680;28;88647;-68
2022/03/05 06:50:28;;;;;;;4.63;2.67;;;-1.60;96.90;-2.00;98411.00;;;;4942422;28;87291;-67
2022/03/05 06:52:54;;;;;;;4.03;2.90;;;-1.50;97.20;-2.00;98416.00;;;;4942209;28;87929;-67
2022/03/05 06:55:21;;;;;;;4.57;3.03;;;-1.60;97.40;-1.90;98426.00;;;;4942785;28;87020;-68
2022/03/05 06:57:52;;;;;;;5.00;2.90;;;-1.50;97.00;-1.80;98415.00;;;;4942977;28;87378;-64
2022/03/05 07:00:21;;;;;;;4.70;3.17;;;-1.40;96.80;-1.70;98419.00;;;;4942136;28;87446;-64
2022/03/05 07:02:48;;;;;;;7.90;3.00;;;-1.30;96.80;-1.70;98438.00;;;;4940618;28;88844;-65
2022/03/05 07:05:15;;;;;;;5.90;2.92;;;-1.30;96.70;-1.80;98426.00;;;;4942195;28;87285;-64
2022/03/05 07:07:41;;;;;;;4.25;2.67;;;-1.40;96.60;-1.80;98428.00;;;;4942337;28;87621;-66
2022/03/05 07:10:14;;;;;;;5.90;3.20;;;-1.40;96.80;-1.80;98431.00;;;;4938810;28;88461;-66
2022/03/05 07:12:43;;;;;;;5.28;3.05;;;-1.40;96.70;-1.80;98428.00;;;;4915151;28;89061;-66
2022/03/05 07:15:09;;;;;;;5.72;3.08;;;-1.40;96.80;-1.80;98433.00;;;;4942481;28;87079;-70
2022/03/05 07:17:36;;;;;;;4.75;3.15;;;-1.40;96.60;-1.80;98405.00;;;;4940902;28;88786;-71
2022/03/05 07:20:07;;;;;;;4.65;3.00;;;-1.40;96.60;-1.70;98437.00;;;;4945170;28;87103;-70
2022/03/05 07:22:33;;;;;;;7.22;3.05;;;-1.30;96.30;-1.90;98465.00;;;;4941380;28;87362;-70
2022/03/05 07:25:02;;;;;;;4.32;2.50;;;-1.40;96.20;-1.90;98444.00;;;;4946117;28;87034;-70
2022/03/05 07:27:29;;;;;;;5.35;2.70;;;-1.50;95.60;-1.90;98404.00;;;;4940295;28;86967;-70
2022/03/05 07:29:55;;;;;;;4.55;3.10;;;-1.40;96.00;-1.90;98424.00;;;;4939415;28;88352;-70
2022/03/05 07:32:27;;;;;;;7.30;2.97;;;-1.50;95.90;-1.70;98410.00;;;;4942108;28;87017;-70
2022/03/05 07:34:55;;;;;;;5.55;2.80;;;-1.30;95.70;-1.60;98413.00;;;;4920304;28;86357;-70
2022/03/05 07:37:22;;;;;;;5.00;2.78;;;-1.20;95.40;-1.40;98427.00;;;;4926488;28;87961;-70
2022/03/05 07:39:51;;;;;;;6.43;2.67;;;-1.10;94.80;-1.20;98437.00;;;;4938176;28;88575;-70
2022/03/05 07:42:17;;;;;;;5.00;2.72;;;-0.90;94.80;-1.20;98427.00;;;;4909162;28;88527;-65
2022/03/05 07:44:51;;;;;;;5.78;3.15;;;-0.90;94.50;-1.10;98417.00;;;;4936841;28;87112;-65
2022/03/05 07:47:21;;;;;;;5.57;3.22;;;-0.80;94.90;-1.00;98410.00;;;;4939953;28;90835;-63
2022/03/05 07:49:50;;;;;;;5.28;2.85;;;-0.70;94.50;-1.20;98419.00;;;;4942325;28;87161;-64
2022/03/05 07:52:17;;;;;;;9.00;3.75;;;-0.90;94.20;-1.10;98416.00;;;;4942427;28;86949;-63
2022/03/05 07:54:47;;;;;;;5.30;2.75;;;-0.90;94.70;-1.30;98421.00;;;;4936757;28;87074;-64
2022/03/05 07:57:16;;;;;;;6.85;3.33;;;-0.90;94.30;-1.20;98409.00;;;;4942273;28;88672;-70
2022/03/05 07:59:43;;;;;;;9.57;2.95;;;-0.80;94.50;-1.10;98416.00;;;;4942307;28;87778;-69
2022/03/05 08:02:10;;;;;;;5.72;2.78;;;-0.80;94.40;-1.10;98436.00;;;;4939928;28;87322;-69
2022/03/05 08:04:39;;;;;;;5.78;2.80;;;-0.70;94.10;-0.90;98403.00;;;;4940631;28;87693;-70
2022/03/05 08:07:09;;;;;;;4.75;2.63;;;-0.60;93.90;-1.00;98421.00;;;;4941759;28;89363;-69
2022/03/05 08:09:36;;;;;;;3.70;2.55;;;-0.60;93.70;-1.10;98444.00;;;;4941984;28;88136;-67
2022/03/05 08:12:04;;;;;;;3.40;2.03;;;-0.80;93.50;-1.20;98427.00;;;;4942206;28;87062;-70
2022/03/05 08:14:31;;;;;;;5.20;2.80;;;-0.90;93.60;-1.10;98436.00;;;;4938907;28;87295;-69
2022/03/05 08:16:58;;;;;;;5.63;2.67;;;-0.80;93.60;-1.10;98443.00;;;;4934213;28;87976;-70
2022/03/05 08:19:24;;;;;;;5.50;2.38;;;-0.70;93.60;-1.10;98426.00;;;;4935759;28;87507;-69
2022/03/05 08:21:50;;;;;;;4.82;3.08;;;-0.80;93.60;-1.00;98426.00;;;;4940639;28;87211;-69
2022/03/05 08:24:16;;;;;;;4.72;2.50;;;-0.70;93.50;-0.90;98451.00;;;;4941614;28;86280;-69
2022/03/05 08:26:42;;;;;;;5.22;2.83;;;-0.60;93.50;-1.00;98429.00;;;;4924630;28;90084;-70
2022/03/05 08:29:09;;;;;;;7.05;3.15;;;-0.70;93.60;-1.00;98422.00;;;;4942767;28;87718;-71
2022/03/05 08:31:38;;;;;;;3.33;2.42;;;-0.70;93.50;-1.10;98436.00;;;;4941049;28;87895;-66
2022/03/05 08:34:04;;;;;;;4.97;2.90;;;-0.70;93.40;-1.20;98453.00;;;;4941495;28;87227;-65
2022/03/05 08:36:32;;;;;;;4.22;2.60;;;-0.80;93.70;-1.20;98450.00;;;;4941489;28;88769;-65
2022/03/05 08:38:59;;;;;;;3.72;2.45;;;-0.80;93.60;-1.30;98434.00;;;;4941222;28;87406;-65
2022/03/05 08:41:26;;;;;;;9.27;3.50;;;-0.90;93.60;-1.30;98451.00;;;;4941751;28;87214;-71
2022/03/05 08:43:56;;;;;;;5.97;2.88;;;-0.90;93.80;-1.40;98432.00;;;;4941536;28;87406;-67
2022/03/05 08:46:26;;;;;;;5.50;3.20;;;-1.00;93.70;-1.40;98440.00;;;;4941183;28;87797;-66
2022/03/05 08:48:56;;;;;;;4.25;2.50;;;-1.00;94.00;-1.50;98423.00;;;;4941635;28;86310;-66
2022/03/05 08:51:23;;;;;;;2.78;2.38;;;-1.10;93.40;-1.50;98430.00;;;;4940266;28;87689;-66
2022/03/05 08:53:49;;;;;;;10.63;2.80;;;-1.10;93.90;-1.40;98453.00;;;;4941053;28;87074;-70
2022/03/05 08:56:16;;;;;;;5.15;2.70;;;-1.00;93.90;-1.20;98437.00;;;;4937594;28;89595;-69
2022/03/05 08:58:42;;;;;;;5.43;2.97;;;-0.80;93.80;-1.00;98433.00;;;;4936105;28;88409;-69
2022/03/05 09:01:08;;;;;;;6.15;3.13;;;-0.70;93.60;-0.80;98463.00;;;;4935960;28;86935;-70
2022/03/05 09:03:35;;;;;;;4.65;2.75;;;-0.50;93.60;-0.80;98457.00;;;;4938404;28;87066;-69
2022/03/05 09:06:04;;;;;;;5.07;2.78;;;-0.50;93.30;-1.10;98470.00;;;;4940055;28;88196;-68
2022/03/05 09:08:30;;;;;;;6.68;3.13;;;-0.70;93.60;-1.00;98443.00;;;;4939553;28;87298;-68
2022/03/05 09:10:56;;;;;;;7.72;3.50;;;-0.70;93.60;-1.00;98453.00;;;;4937981;28;87366;-68
2022/03/05 09:13:23;;;;;;;6.20;3.45;;;-0.70;94.00;-1.00;98461.00;;;;4941442;28;87005;-68
2022/03/05 09:15:49;;;;;;;5.50;2.65;;;-0.60;93.70;-1.00;98444.00;;;;4935072;28;87560;-68
2022/03/05 09:18:18;;;;;;;3.60;2.55;;;-0.60;93.70;-1.10;98465.00;;;;4939281;28;87424;-68
2022/03/05 09:20:47;;;;;;;6.38;2.75;;;-0.70;93.60;-0.90;98460.00;;;;4932882;28;88033;-69
2022/03/05 09:23:17;;;;;;;4.65;2.97;;;-0.60;93.70;-1.00;98449.00;;;;4936790;28;87033;-67
2022/03/05 09:25:43;;;;;;;5.05;2.97;;;-0.60;93.60;-0.90;98455.00;;;;4942362;28;87705;-67
2022/03/05 09:28:09;;;;;;;6.65;2.67;;;-0.60;93.30;-0.90;98478.00;;;;4935493;28;89031;-60
2022/03/05 09:30:36;;;;;;;4.35;2.70;;;-0.60;93.60;-1.10;98464.00;;;;4939967;28;87236;-61
2022/03/05 09:33:02;;;;;;;4.30;2.63;;;-0.80;93.60;-0.90;98475.00;;;;4940583;28;87161;-62
2022/03/05 09:35:31;;;;;;;7.05;2.55;;;-0.60;93.60;-0.80;98473.00;;;;4938046;28;87811;-68
2022/03/05 09:37:57;;;;;;;4.00;2.78;;;-0.60;93.10;-1.00;98463.00;;;;4939684;28;87626;-68
2022/03/05 09:40:25;;;;;;;6.32;3.10;;;-0.70;93.50;-1.20;98497.00;;;;4937703;28;87066;-68
2022/03/05 09:42:51;;;;;;;4.60;2.80;;;-0.80;93.60;-1.20;98476.00;;;;4939982;28;86951;-67
2022/03/05 09:45:21;;;;;;;5.35;2.65;;;-0.90;93.50;-1.10;98505.00;;;;4932138;28;88082;-67
2022/03/05 09:47:50;;;;;;;4.60;2.88;;;-0.80;93.60;-1.30;98478.00;;;;4934269;28;89387;-67
2022/03/05 09:50:28;;;;;;;3.55;2.47;;;-0.90;93.60;-1.40;98482.00;;;;4935715;28;87034;-69
2022/03/05 09:52:56;;;;;;;3.30;2.22;;;-1.00;93.50;-1.30;98483.00;;;;4924830;28;86927;-68
2022/03/05 09:55:26;;;;;;;4.55;2.30;;;-0.90;93.90;-1.20;98492.00;;;;4938080;28;87507;-62
2022/03/05 09:57:55;;;;;;;3.30;2.20;;;-0.80;93.60;-1.10;98502.00;;;;4943828;28;87929;-62
2022/03/05 10:00:26;;;;;;;6.20;3.10;;;-0.80;93.60;-1.00;98503.00;;;;4944102;28;87244;-62
2022/03/05 10:02:55;;;;;;;5.65;3.03;;;-0.60;93.60;-1.00;98512.00;;;;4937556;28;86322;-62
2022/03/05 10:05:31;;;;;;;4.18;2.00;;;-0.60;93.50;-1.10;98507.00;;;;4943598;28;88093;-62
2022/03/05 10:08:20;;;;;;;3.45;2.42;;;-0.80;93.40;-1.20;98510.00;;;;4943796;28;88375;-62
2022/03/05 10:10:52;;;;;;;4.80;2.25;;;-0.90;93.60;-1.20;98503.00;;;;4932898;28;88160;-62
2022/03/05 10:13:31;;;;;;;3.03;2.33;;;-0.80;93.60;-1.20;98505.00;;;;4942462;28;87075;-62
2022/03/05 10:16:02;;;;;;;10.13;2.95;;;-0.80;93.60;-1.10;98523.00;;;;4942259;28;88453;-60
2022/03/05 10:18:37;;;;;;;4.75;2.40;;;-0.70;93.60;-1.20;98519.00;;;;4944025;28;88730;-61
2022/03/05 10:21:09;;;;;;;3.30;2.00;;;-0.80;93.40;-1.30;98494.00;;;;4943046;28;86966;-63
2022/03/05 10:23:42;;;;;;;2.92;1.90;;;-0.90;93.00;-1.40;98493.00;;;;4940668;28;87407;-61
2022/03/05 10:26:22;;;;;;;5.13;2.42;;;-0.90;92.90;-1.20;98507.00;;;;4941152;28;87458;-69
2022/03/05 10:28:51;;;;;;;6.15;2.70;;;-0.80;93.10;-1.10;98505.00;;;;4943795;28;89211;-70
2022/03/05 10:31:20;;;;;;;6.18;2.55;;;-0.70;93.30;-1.00;98503.00;;;;4942975;28;87090;-68
2022/03/05 10:33:52;;;;;;;8.40;2.70;;;-0.60;93.40;-1.00;98489.00;;;;4942322;28;87462;-68
2022/03/05 10:36:24;;;;;;;4.50;2.67;;;-0.70;93.40;-1.10;98510.00;;;;4939393;28;88660;-68
2022/03/05 10:39:04;;;;;;;4.68;2.80;;;-0.70;93.40;-0.90;98491.00;;;;4941612;28;89421;-68
2022/03/05 10:41:40;;;;;;;6.47;2.80;;;-0.60;93.40;-0.90;98498.00;;;;4943052;28;86990;-68
2022/03/05 10:44:07;;;;;;;4.93;3.00;;;-0.50;92.90;-0.80;98508.00;;;;4938972;28;87347;-68
2022/03/05 10:46:44;;;;;;;5.57;2.85;;;-0.50;93.10;-0.80;98504.00;;;;4942790;28;87545;-68
2022/03/05 10:49:23;;;;;;;4.18;2.55;;;-0.50;93.30;-0.80;98496.00;;;;4941826;28;87706;-68
2022/03/05 10:52:10;;;;;;;4.85;2.63;;;-0.50;93.30;-0.70;98528.00;;;;4943285;28;87194;-68
2022/03/05 10:54:40;;;;;;;6.72;2.83;;;-0.40;93.30;-0.80;98545.00;;;;4943436;28;86405;-68
2022/03/05 10:57:17;;;;;;;4.90;2.50;;;-0.50;93.40;-1.00;98517.00;;;;4942354;28;88717;-67
2022/03/05 10:59:51;;;;;;;4.70;2.42;;;-0.70;93.40;-1.00;98513.00;;;;4938998;28;87211;-67
2022/03/05 11:02:22;;;;;;;4.20;2.40;;;-0.70;93.60;-1.10;98504.00;;;;4941058;28;87925;-68